createdAt,value
2018-04-23T00:02:25.984Z,100424.79
2018-04-23T00:04:54.332Z,100423.22
2018-04-23T00:07:22.667Z,100423.83
2018-04-23T00:09:51.009Z,100418.03
2018-04-23T00:12:19.332Z,100421.64
2018-04-23T00:14:47.681Z,100419.39
2018-04-23T00:17:16.004Z,100419.61
2018-04-23T00:19:44.353Z,100414.85
2018-04-23T00:22:12.703Z,100419.67
2018-04-23T00:24:41.025Z,100417.27
2018-04-23T00:27:09.377Z,100426.44
2018-04-23T00:29:37.709Z,100416.45
2018-04-23T00:32:06.056Z,100421.14
2018-04-23T00:34:34.388Z,100418.62
2018-04-23T00:37:02.737Z,100426.28
2018-04-23T00:39:31.064Z,100420.52
2018-04-23T00:41:59.409Z,100432.21
2018-04-23T00:44:27.733Z,100422.70
2018-04-23T00:46:56.075Z,100418.52
2018-04-23T00:49:24.404Z,100411.54
2018-04-23T00:51:52.753Z,100421.98
2018-04-23T00:54:21.080Z,100414.59
2018-04-23T00:56:49.429Z,100422.28
2018-04-23T00:59:17.761Z,100420.55
2018-04-23T01:01:46.109Z,100418.41
2018-04-23T01:04:14.472Z,100411.67
2018-04-23T01:06:42.789Z,100412.98
2018-04-23T01:09:11.119Z,100409.56
2018-04-23T01:11:39.464Z,100408.67
2018-04-23T01:14:07.787Z,100410.28
2018-04-23T01:16:36.136Z,100412.61
2018-04-23T01:19:04.464Z,100411.57
2018-04-23T01:21:32.821Z,100414.80
2018-04-23T01:24:01.153Z,100409.06
2018-04-23T01:26:29.509Z,100409.91
2018-04-23T01:28:57.841Z,100414.13
2018-04-23T01:31:26.196Z,100411.19
2018-04-23T01:33:54.533Z,100415.06
2018-04-23T01:36:22.881Z,100418.28
2018-04-23T01:38:51.217Z,100415.58
2018-04-23T01:41:19.573Z,100417.95
2018-04-23T01:43:47.903Z,100419.00
2018-04-23T01:46:16.260Z,100416.48
2018-04-23T01:48:44.591Z,100419.39
2018-04-23T01:51:12.944Z,100426.31
2018-04-23T01:53:41.276Z,100425.58
2018-04-23T01:56:09.632Z,100435.15
2018-04-23T01:58:37.969Z,100436.38
2018-04-23T02:01:06.325Z,100446.25
2018-04-23T02:03:34.660Z,100453.46
2018-04-23T02:06:03.013Z,100451.66
2018-04-23T02:08:31.347Z,100454.27
2018-04-23T02:10:59.702Z,100451.36
2018-04-23T02:13:28.033Z,100448.44
2018-04-23T02:15:56.385Z,100453.19
2018-04-23T02:18:24.724Z,100443.89
2018-04-23T02:20:53.049Z,100445.06
2018-04-23T02:23:21.403Z,100446.50
2018-04-23T02:25:49.739Z,100450.63
2018-04-23T02:28:18.088Z,100452.72
2018-04-23T02:30:46.420Z,100457.06
2018-04-23T02:33:14.786Z,100464.73
2018-04-23T02:35:43.108Z,100462.05
2018-04-23T02:38:11.465Z,100460.95
2018-04-23T02:40:39.796Z,100462.61
2018-04-23T02:43:08.153Z,100469.98
2018-04-23T02:45:36.484Z,100467.78
2018-04-23T02:48:04.841Z,100464.27
2018-04-23T02:50:33.172Z,100477.63
2018-04-23T02:53:01.531Z,100492.06
2018-04-23T02:55:29.860Z,100483.75
2018-04-23T02:57:58.216Z,100483.75
2018-04-23T03:00:26.557Z,100474.94
2018-04-23T03:02:54.911Z,100478.56
2018-04-23T03:05:23.250Z,100473.68
2018-04-23T03:07:51.592Z,100470.22
2018-04-23T03:10:19.937Z,100467.78
2018-04-23T03:12:48.289Z,100463.16
2018-04-23T03:15:16.612Z,100467.64
2018-04-23T03:17:44.976Z,100460.66
2018-04-23T03:20:13.308Z,100466.40
2018-04-23T03:22:41.665Z,100473.16
2018-04-23T03:25:10.000Z,100473.14
2018-04-23T03:27:38.353Z,100478.61
2018-04-23T03:30:06.695Z,100470.52
2018-04-23T03:32:35.058Z,100470.55
2018-04-23T03:35:03.384Z,100475.01
2018-04-23T03:37:31.736Z,100476.63
2018-04-23T03:40:00.072Z,100471.33
2018-04-23T03:42:28.429Z,100479.12
2018-04-23T03:44:56.765Z,100475.20
2018-04-23T03:47:25.124Z,100478.19
2018-04-23T03:49:53.457Z,100475.48
2018-04-23T03:52:21.818Z,100469.98
2018-04-23T03:54:50.145Z,100475.44
2018-04-23T03:57:18.512Z,100471.30
2018-04-23T03:59:46.847Z,100472.86
2018-04-23T04:02:15.209Z,100468.77
2018-04-23T04:04:43.541Z,100465.52
2018-04-23T04:07:11.897Z,100466.40
2018-04-23T04:09:40.228Z,100475.12
2018-04-23T04:12:20.408Z,100473.19
2018-04-23T04:15:00.476Z,100474.30
2018-04-23T04:17:36.292Z,100475.80
2018-04-23T04:20:04.629Z,100471.90
2018-04-23T04:22:32.984Z,100470.40
2018-04-23T04:25:01.324Z,100475.78
2018-04-23T04:27:29.686Z,100482.72
2018-04-23T04:29:58.022Z,100496.61
2018-04-23T04:32:26.378Z,100496.17
2018-04-23T04:34:54.709Z,100494.33
2018-04-23T04:37:23.069Z,100499.36
2018-04-23T04:39:51.409Z,100496.77
2018-04-23T04:42:19.767Z,100498.13
2018-04-23T04:44:48.110Z,100496.27
2018-04-23T04:47:16.449Z,100486.55
2018-04-23T04:49:44.814Z,100501.20
2018-04-23T04:52:13.153Z,100512.35
2018-04-23T04:54:41.512Z,100511.33
2018-04-23T04:57:09.849Z,100517.68
2018-04-23T04:59:38.210Z,100518.46
2018-04-23T05:02:06.548Z,100517.62
2018-04-23T05:04:34.916Z,100508.05
2018-04-23T05:07:03.256Z,100518.61
2018-04-23T05:09:31.612Z,100519.66
2018-04-23T05:11:59.952Z,100528.51
2018-04-23T05:14:28.304Z,100528.17
2018-04-23T05:16:56.650Z,100527.44
2018-04-23T05:19:25.690Z,100533.39
2018-04-23T05:21:54.024Z,100544.39
2018-04-23T05:24:22.380Z,100544.91
2018-04-23T05:26:50.716Z,100543.28
2018-04-23T05:29:19.076Z,100544.02
2018-04-23T05:31:47.427Z,100550.64
2018-04-23T05:34:15.787Z,100553.08
2018-04-23T05:36:44.125Z,100548.78
2018-04-23T05:39:12.498Z,100546.86
2018-04-23T05:41:40.836Z,100551.41
2018-04-23T05:44:09.293Z,100554.41
2018-04-23T05:46:38.545Z,100555.00
2018-04-23T05:49:06.911Z,100551.05
2018-04-23T05:51:35.277Z,100560.03
2018-04-23T05:54:03.631Z,100557.73
2018-04-23T05:56:31.969Z,100567.75
2018-04-23T05:59:00.328Z,100562.78
2018-04-23T06:01:28.677Z,100573.45
2018-04-23T06:03:57.037Z,100578.02
2018-04-23T06:06:25.377Z,100567.88
2018-04-23T06:08:53.917Z,100574.75
2018-04-23T06:11:22.087Z,100580.13
2018-04-23T06:13:50.441Z,100572.20
2018-04-23T06:16:18.789Z,100579.33
2018-04-23T06:18:47.957Z,100581.50
2018-04-23T06:21:16.313Z,100581.70
2018-04-23T06:23:44.678Z,100575.31
2018-04-23T06:26:13.026Z,100584.12
2018-04-23T06:28:41.381Z,100582.98
2018-04-23T06:31:09.732Z,100584.54
2018-04-23T06:33:38.095Z,100588.72
2018-04-23T06:36:06.445Z,100592.38
2018-04-23T06:38:34.801Z,100592.00
2018-04-23T06:41:03.174Z,100589.47
2018-04-23T06:43:31.511Z,100589.65
2018-04-23T06:45:59.853Z,100595.66
2018-04-23T06:48:28.228Z,100588.83
2018-04-23T06:50:56.564Z,100585.60
2018-04-23T06:53:24.914Z,100592.34
2018-04-23T06:55:53.275Z,100597.70
2018-04-23T06:58:21.620Z,100599.60
2018-04-23T07:00:49.982Z,100601.00
2018-04-23T07:03:18.317Z,100603.22
2018-04-23T07:05:46.669Z,100613.11
2018-04-23T07:08:15.008Z,100613.81
2018-04-23T07:10:43.361Z,100610.69
2018-04-23T07:13:11.692Z,100618.16
2018-04-23T07:15:40.053Z,100618.06
2018-04-23T07:18:08.389Z,100618.65
2018-04-23T07:20:36.750Z,100615.81
2018-04-23T07:23:05.087Z,100614.20
2018-04-23T07:25:33.441Z,100616.30
2018-04-23T07:28:01.782Z,100627.78
2018-04-23T07:30:30.137Z,100620.83
2018-04-23T07:32:58.481Z,100627.21
2018-04-23T07:35:26.837Z,100626.44
2018-04-23T07:37:55.177Z,100626.91
2018-04-23T07:40:23.537Z,100627.85
2018-04-23T07:42:51.865Z,100627.22
2018-04-23T07:45:20.221Z,100628.02
2018-04-23T07:47:48.607Z,100640.13
2018-04-23T07:50:16.918Z,100642.80
2018-04-23T07:52:45.265Z,100654.77
2018-04-23T07:55:13.617Z,100650.94
2018-04-23T07:57:41.949Z,100649.01
2018-04-23T08:00:10.305Z,100655.65
2018-04-23T08:02:38.637Z,100662.14
2018-04-23T08:05:06.985Z,100658.94
2018-04-23T08:07:35.320Z,100660.81
2018-04-23T08:10:03.680Z,100658.91
2018-04-23T08:12:32.009Z,100657.59
2018-04-23T08:15:00.373Z,100664.91
2018-04-23T08:17:28.708Z,100671.19
2018-04-23T08:19:57.082Z,100672.84
2018-04-23T08:22:25.418Z,100670.25
2018-04-23T08:24:53.777Z,100678.03
2018-04-23T08:27:22.116Z,100677.95
2018-04-23T08:29:50.476Z,100678.86
2018-04-23T08:32:18.808Z,100681.48
2018-04-23T08:34:47.165Z,100691.09
2018-04-23T08:37:15.504Z,100692.14
2018-04-23T08:39:43.864Z,100684.73
2018-04-23T08:42:12.197Z,100693.54
2018-04-23T08:44:40.540Z,100698.17
2018-04-23T08:47:08.866Z,100699.95
2018-04-23T08:49:37.211Z,100698.38
2018-04-23T08:52:05.569Z,100704.99
2018-04-23T08:54:33.901Z,100706.41
2018-04-23T08:57:02.253Z,100705.53
2018-04-23T08:59:30.585Z,100711.78
2018-04-23T09:01:58.936Z,100716.31
2018-04-23T09:04:28.101Z,100720.35
2018-04-23T09:06:56.449Z,100715.72
2018-04-23T09:09:24.776Z,100707.62
2018-04-23T09:11:53.128Z,100709.80
2018-04-23T09:14:21.756Z,100717.12
2018-04-23T09:16:50.109Z,100712.63
2018-04-23T09:19:18.441Z,100716.45
2018-04-23T09:21:46.792Z,100719.57
2018-04-23T09:24:15.129Z,100731.01
2018-04-23T09:26:43.484Z,100728.36
2018-04-23T09:29:11.810Z,100726.81
2018-04-23T09:31:40.200Z,100734.48
2018-04-23T09:34:08.497Z,100723.64
2018-04-23T09:36:36.848Z,100733.15
2018-04-23T09:39:06.518Z,100736.93
2018-04-23T09:41:34.875Z,100742.64
2018-04-23T09:44:03.197Z,100740.01
2018-04-23T09:46:31.557Z,100745.58
2018-04-23T09:48:59.880Z,100749.32
2018-04-23T09:51:28.233Z,100754.18
2018-04-23T09:53:56.565Z,100749.11
2018-04-23T09:56:24.911Z,100752.36
2018-04-23T09:58:53.229Z,100748.48
2018-04-23T10:01:21.580Z,100754.72
2018-04-23T10:03:50.831Z,100752.94
2018-04-23T10:06:19.173Z,100753.33
2018-04-23T10:08:47.500Z,100755.64
2018-04-23T10:11:15.844Z,100754.27
2018-04-23T10:13:44.173Z,100764.12
2018-04-23T10:16:12.521Z,100775.02
2018-04-23T10:18:40.853Z,100777.69
2018-04-23T10:21:09.210Z,100776.64
2018-04-23T10:23:37.536Z,100778.97
2018-04-23T10:26:05.900Z,100783.39
2018-04-23T10:28:34.225Z,100780.13
2018-04-23T10:31:02.581Z,100783.90
2018-04-23T10:33:30.915Z,100780.20
2018-04-23T10:35:59.257Z,100772.55
2018-04-23T10:38:27.581Z,100772.17
2018-04-23T10:40:55.936Z,100784.52
2018-04-23T10:43:24.270Z,100783.69
2018-04-23T10:45:52.625Z,100786.33
2018-04-23T10:48:20.965Z,100788.55
2018-04-23T10:50:49.345Z,100786.44
2018-04-23T10:53:17.673Z,100786.75
2018-04-23T10:55:46.000Z,100791.57
2018-04-23T10:58:14.493Z,100788.08
2018-04-23T11:00:42.825Z,100790.30
2018-04-23T11:03:11.176Z,100790.92
2018-04-23T11:05:39.512Z,100787.17
2018-04-23T11:08:07.869Z,100789.66
2018-04-23T11:10:36.201Z,100799.23
2018-04-23T11:13:04.557Z,100793.49
2018-04-23T11:15:32.894Z,100796.89
2018-04-23T11:18:01.253Z,100808.08
2018-04-23T11:20:29.596Z,100803.45
2018-04-23T11:22:57.949Z,100800.58
2018-04-23T11:25:26.277Z,100799.58
2018-04-23T11:27:54.629Z,100801.40
2018-04-23T11:30:22.957Z,100804.19
2018-04-23T11:32:51.308Z,100813.19
2018-04-23T11:35:19.628Z,100814.35
2018-04-23T11:37:47.981Z,100813.72
2018-04-23T11:40:16.304Z,100817.78
2018-04-23T11:42:44.661Z,100817.09
2018-04-23T11:45:13.046Z,100810.05
2018-04-23T11:47:41.345Z,100822.20
2018-04-23T11:50:09.685Z,100820.41
2018-04-23T11:52:38.034Z,100822.27
2018-04-23T11:55:06.377Z,100819.85
2018-04-23T11:57:35.621Z,100823.08
2018-04-23T12:00:03.966Z,100823.80
2018-04-23T12:02:32.357Z,100826.19
2018-04-23T12:05:00.645Z,100823.16
2018-04-23T12:07:29.001Z,100824.34
2018-04-23T12:09:57.329Z,100811.87
2018-04-23T12:12:25.685Z,100820.73
2018-04-23T12:14:54.021Z,100821.84
2018-04-23T12:17:22.371Z,100822.38
2018-04-23T12:19:50.697Z,100819.50
2018-04-23T12:22:19.050Z,100819.77
2018-04-23T12:24:47.386Z,100816.51
2018-04-23T12:27:15.741Z,100828.08
2018-04-23T12:29:44.073Z,100821.77
2018-04-23T12:32:12.425Z,100822.07
2018-04-23T12:34:40.748Z,100817.76
2018-04-23T12:37:09.992Z,100816.63
2018-04-23T12:39:38.346Z,100818.81
2018-04-23T12:42:06.680Z,100821.83
2018-04-23T12:44:35.019Z,100825.73
2018-04-23T12:47:03.366Z,100814.25
2018-04-23T12:49:31.692Z,100817.89
2018-04-23T12:52:00.042Z,100815.51
2018-04-23T12:54:28.374Z,100813.36
2018-04-23T12:56:56.696Z,100819.66
2018-04-23T12:59:25.054Z,100811.19
2018-04-23T13:01:53.385Z,100802.34
2018-04-23T13:04:21.766Z,100810.25
2018-04-23T13:06:51.005Z,100803.09
2018-04-23T13:09:19.361Z,100804.05
2018-04-23T13:11:47.696Z,100802.63
2018-04-23T13:14:16.045Z,100798.77
2018-04-23T13:16:44.376Z,100799.52
2018-04-23T13:19:12.725Z,100797.31
2018-04-23T13:21:41.061Z,100804.62
2018-04-23T13:24:09.412Z,100795.89
2018-04-23T13:26:37.745Z,100795.88
2018-04-23T13:29:06.093Z,100795.22
2018-04-23T13:31:34.422Z,100803.45
2018-04-23T13:34:02.776Z,100798.71
2018-04-23T13:36:31.117Z,100798.77
2018-04-23T13:38:59.468Z,100795.02
2018-04-23T13:41:27.793Z,100793.53
2018-04-23T13:43:56.146Z,100792.69
2018-04-23T13:46:24.473Z,100797.92
2018-04-23T13:48:52.822Z,100791.65
2018-04-23T13:51:21.156Z,100783.30
2018-04-23T13:53:49.504Z,100789.33
2018-04-23T13:56:17.864Z,100788.25
2018-04-23T13:58:46.179Z,100788.64
2018-04-23T14:01:14.505Z,100788.22
2018-04-23T14:03:42.849Z,100782.61
2018-04-23T14:06:11.184Z,100785.33
2018-04-23T14:08:39.546Z,100787.70
2018-04-23T14:11:07.876Z,100789.28
2018-04-23T14:13:36.205Z,100782.87
2018-04-23T14:16:04.565Z,100782.30
2018-04-23T14:18:32.904Z,100779.87
2018-04-23T14:21:01.261Z,100783.52
2018-04-23T14:23:29.616Z,100782.72
2018-04-23T14:25:58.018Z,100779.61
2018-04-23T14:28:26.345Z,100776.97
2018-04-23T14:30:54.723Z,100778.86
2018-04-23T14:33:23.047Z,100776.50
2018-04-23T14:35:51.417Z,100778.96
2018-04-23T14:38:19.753Z,100781.48
2018-04-23T14:40:48.108Z,100783.58
2018-04-23T14:43:16.437Z,100782.33
2018-04-23T14:45:44.784Z,100782.37
2018-04-23T14:48:13.112Z,100782.72
2018-04-23T14:50:41.465Z,100784.59
2018-04-23T14:53:09.814Z,100787.42
2018-04-23T14:55:38.142Z,100775.24
2018-04-23T14:58:06.464Z,100783.02
2018-04-23T15:00:34.814Z,100780.83
2018-04-23T15:03:03.147Z,100784.12
2018-04-23T15:05:31.492Z,100782.87
2018-04-23T15:07:59.825Z,100779.40
2018-04-23T15:10:28.193Z,100784.26
2018-04-23T15:12:56.521Z,100786.55
2018-04-23T15:15:24.853Z,100777.89
2018-04-23T15:17:53.258Z,100779.00
2018-04-23T15:20:21.537Z,100784.37
2018-04-23T15:22:49.885Z,100785.27
2018-04-23T15:25:18.209Z,100787.52
2018-04-23T15:27:46.560Z,100789.78
2018-04-23T15:30:14.892Z,100786.06
2018-04-23T15:32:43.248Z,100783.83
2018-04-23T15:35:11.603Z,100790.81
2018-04-23T15:37:39.931Z,100789.78
2018-04-23T15:40:08.257Z,100798.04
2018-04-23T15:42:36.605Z,100801.88
2018-04-23T15:45:04.938Z,100796.39
2018-04-23T15:47:33.289Z,100793.73
2018-04-23T15:50:01.613Z,100792.02
2018-04-23T15:52:29.963Z,100794.71
2018-04-23T15:54:58.292Z,100803.27
2018-04-23T15:57:26.647Z,100799.44
2018-04-23T15:59:54.984Z,100798.70
2018-04-23T16:02:23.341Z,100799.13
2018-04-23T16:04:51.668Z,100803.94
2018-04-23T16:07:20.028Z,100808.14
2018-04-23T16:09:48.366Z,100807.55
2018-04-23T16:12:16.727Z,100803.40
2018-04-23T16:14:45.066Z,100807.16
2018-04-23T16:17:14.292Z,100810.36
2018-04-23T16:19:42.649Z,100806.81
2018-04-23T16:22:10.972Z,100818.42
2018-04-23T16:24:39.368Z,100823.63
2018-04-23T16:27:07.658Z,100819.54
2018-04-23T16:29:36.801Z,100817.64
2018-04-23T16:32:05.137Z,100820.84
2018-04-23T16:34:33.493Z,100832.92
2018-04-23T16:37:02.724Z,100825.02
2018-04-23T16:39:31.060Z,100827.61
2018-04-23T16:41:59.397Z,100833.21
2018-04-23T16:44:27.755Z,100828.72
2018-04-23T16:46:56.093Z,100824.32
2018-04-23T16:49:24.450Z,100835.11
2018-04-23T16:51:52.779Z,100837.84
2018-04-23T16:54:21.132Z,100831.64
2018-04-23T16:56:50.385Z,100830.09
2018-04-23T16:59:18.745Z,100832.86
2018-04-23T17:01:47.078Z,100828.65
2018-04-23T17:04:15.428Z,100829.22
2018-04-23T17:06:43.765Z,100827.94
2018-04-23T17:09:12.263Z,100841.63
2018-04-23T17:11:40.592Z,100839.52
2018-04-23T17:14:08.949Z,100838.98
2018-04-23T17:16:37.280Z,100840.96
2018-04-23T17:19:05.642Z,100835.80
2018-04-23T17:21:34.042Z,100844.63
2018-04-23T17:24:02.327Z,100849.48
2018-04-23T17:26:30.677Z,100846.09
2018-04-23T17:28:59.047Z,100834.19
2018-04-23T17:31:27.401Z,100832.28
2018-04-23T17:33:55.726Z,100834.30
2018-04-23T17:36:24.081Z,100835.53
2018-04-23T17:38:52.401Z,100838.00
2018-04-23T17:41:20.749Z,100838.42
2018-04-23T17:43:49.080Z,100841.31
2018-04-23T17:46:17.433Z,100854.19
2018-04-23T17:48:45.804Z,100858.44
2018-04-23T17:51:14.144Z,100857.56
2018-04-23T17:53:42.476Z,100858.41
2018-04-23T17:56:10.834Z,100863.31
2018-04-23T17:58:39.163Z,100859.94
2018-04-23T18:01:07.508Z,100864.45
2018-04-23T18:03:35.840Z,100873.34
2018-04-23T18:06:04.195Z,100873.06
2018-04-23T18:08:32.521Z,100874.52
2018-04-23T18:11:00.912Z,100878.02
2018-04-23T18:13:29.204Z,100878.63
2018-04-23T18:15:57.560Z,100878.95
2018-04-23T18:18:25.893Z,100880.56
2018-04-23T18:20:54.248Z,100888.42
2018-04-23T18:23:22.576Z,100894.42
2018-04-23T18:25:50.901Z,100892.67
2018-04-23T18:28:19.250Z,100889.67
2018-04-23T18:30:47.572Z,100898.34
2018-04-23T18:33:15.920Z,100905.14
2018-04-23T18:35:44.257Z,100898.17
2018-04-23T18:38:12.604Z,100893.75
2018-04-23T18:40:40.962Z,100902.28
2018-04-23T18:43:09.324Z,100913.23
2018-04-23T18:45:37.691Z,100907.97
2018-04-23T18:48:42.269Z,100915.53
2018-04-23T18:51:11.669Z,100920.28
2018-04-23T18:53:40.029Z,100922.67
2018-04-23T18:56:08.400Z,100926.31
2018-04-23T18:58:36.733Z,100934.23
2018-04-23T19:01:05.076Z,100934.06
2018-04-23T19:03:33.476Z,100935.34
2018-04-23T19:06:01.829Z,100939.11
2018-04-23T19:08:30.183Z,100940.17
2018-04-23T19:10:58.562Z,100944.66
2018-04-23T19:13:26.866Z,100944.77
2018-04-23T19:15:55.207Z,100946.44
2018-04-23T19:18:23.563Z,100945.59
2018-04-23T19:20:51.898Z,100942.27
2018-04-23T19:23:20.256Z,100944.22
2018-04-23T19:25:48.579Z,100952.22
2018-04-23T19:28:16.962Z,100950.64
2018-04-23T19:30:45.314Z,100953.70
2018-04-23T19:33:13.638Z,100946.97
2018-04-23T19:35:41.973Z,100951.25
2018-04-23T19:38:10.330Z,100957.95
2018-04-23T19:40:39.232Z,100966.03
2018-04-23T19:43:07.602Z,100967.94
2018-04-23T19:45:36.082Z,100972.53
2018-04-23T19:48:04.435Z,100979.30
2018-04-23T19:50:32.760Z,100978.77
2018-04-23T19:53:01.123Z,100981.86
2018-04-23T19:55:29.453Z,100983.02
2018-04-23T19:57:57.776Z,100984.30
2018-04-23T20:00:26.134Z,100986.14
2018-04-23T20:02:54.453Z,100982.44
2018-04-23T20:05:22.802Z,100984.16
2018-04-23T20:07:51.141Z,100984.66
2018-04-23T20:10:19.497Z,100986.77
2018-04-23T20:12:47.834Z,100989.97
2018-04-23T20:15:16.180Z,100986.22
2018-04-23T20:17:44.505Z,100981.00
2018-04-23T20:20:12.859Z,100983.84
2018-04-23T20:22:41.176Z,100972.72
2018-04-23T20:25:09.529Z,100978.00
2018-04-23T20:27:38.813Z,100978.97
2018-04-23T20:30:07.165Z,100982.47
2018-04-23T20:32:35.488Z,100990.44
2018-04-23T20:35:03.841Z,100994.05
2018-04-23T20:37:32.177Z,100988.70
2018-04-23T20:40:00.530Z,100990.22
2018-04-23T20:42:28.857Z,100990.37
2018-04-23T20:44:57.289Z,100991.34
2018-04-23T20:47:25.612Z,100990.75
2018-04-23T20:49:53.963Z,100987.59
2018-04-23T20:52:22.288Z,100986.07
2018-04-23T20:54:50.645Z,100990.98
2018-04-23T20:57:19.933Z,100988.54
2018-04-23T20:59:48.280Z,100993.48
2018-04-23T21:02:16.616Z,100989.72
2018-04-23T21:04:44.965Z,100985.97
2018-04-23T21:07:14.261Z,100986.36
2018-04-23T21:09:42.610Z,100987.00
2018-04-23T21:12:10.941Z,100992.13
2018-04-23T21:14:39.290Z,100997.65
2018-04-23T21:17:08.580Z,100987.39
2018-04-23T21:19:36.933Z,101000.91
2018-04-23T21:22:05.269Z,101001.14
2018-04-23T21:24:33.614Z,100992.09
2018-04-23T21:27:01.936Z,100996.08
2018-04-23T21:29:31.284Z,100992.67
2018-04-23T21:31:59.618Z,100988.98
2018-04-23T21:34:27.973Z,100990.84
2018-04-23T21:36:56.289Z,100985.83
2018-04-23T21:39:24.645Z,100994.52
2018-04-23T21:41:52.969Z,100993.73
2018-04-23T21:44:21.316Z,100985.30
2018-04-23T21:46:49.649Z,100982.71
2018-04-23T21:49:17.997Z,100985.73
2018-04-23T21:51:46.332Z,100989.72
2018-04-23T21:54:14.677Z,100986.36
2018-04-23T21:56:43.001Z,100990.70
2018-04-23T21:59:11.361Z,100995.63
2018-04-23T22:01:39.681Z,101001.48
2018-04-23T22:04:08.013Z,100999.19
2018-04-23T22:06:36.361Z,101003.63
2018-04-23T22:09:05.293Z,101001.56
2018-04-23T22:11:33.632Z,101004.07
2018-04-23T22:14:01.972Z,101005.38
2018-04-23T22:16:30.303Z,101006.09
2018-04-23T22:18:58.617Z,101007.64
2018-04-23T22:21:26.961Z,101005.05
2018-04-23T22:23:55.280Z,101006.77
2018-04-23T22:26:23.620Z,100999.22
2018-04-23T22:28:51.939Z,101000.15
2018-04-23T22:31:20.284Z,101002.75
2018-04-23T22:33:48.608Z,100997.04
2018-04-23T22:36:16.948Z,100997.38
2018-04-23T22:38:45.280Z,100999.90
2018-04-23T22:41:13.621Z,101011.41
2018-04-23T22:43:41.950Z,101009.89
2018-04-23T22:46:10.305Z,101007.84
2018-04-23T22:48:38.628Z,101002.69
2018-04-23T22:51:06.968Z,101001.94
2018-04-23T22:53:35.293Z,101000.88
2018-04-23T22:56:03.636Z,100995.14
2018-04-23T22:58:32.042Z,100997.61
2018-04-23T23:01:00.312Z,101008.17
2018-04-23T23:03:28.632Z,101001.39
2018-04-23T23:05:56.980Z,101009.03
2018-04-23T23:08:25.300Z,100999.03
2018-04-23T23:10:53.649Z,101005.34
2018-04-23T23:13:21.972Z,101013.81
2018-04-23T23:15:50.318Z,101011.34
2018-04-23T23:18:18.638Z,101011.76
2018-04-23T23:20:46.981Z,101012.81
2018-04-23T23:23:15.316Z,101011.35
2018-04-23T23:25:43.654Z,101006.45
2018-04-23T23:28:11.969Z,100999.47
2018-04-23T23:30:40.313Z,101002.19
2018-04-23T23:33:08.637Z,101006.47
2018-04-23T23:35:36.986Z,101005.76
2018-04-23T23:38:05.307Z,101002.67
2018-04-23T23:40:33.650Z,100999.68
2018-04-23T23:43:01.970Z,100996.98
2018-04-23T23:45:30.318Z,100994.45
2018-04-23T23:47:58.644Z,101002.52
2018-04-23T23:50:26.981Z,100995.12
2018-04-23T23:52:55.296Z,100993.23
2018-04-23T23:55:23.645Z,100990.30
2018-04-23T23:57:51.965Z,100992.73
